Redlands, California
Current Conditions -  °F | °C
As of 12:58 PM on Wednesday 26 Nov 2014 (Local Time) from KRIV Reporting Station
Clear Clear  
Wind Chill: 85°   Ceiling: Unl
Heat Index: 85°   Visibility: 10mi
Dew Point: 18°   Wind: 9mph
Humidity: 8%   Direction: 80°E
Pressure: 30.2"   Gusts: NA
Location:  34.06°N, 117.18°W
Report Text: KRIV 262058Z AUTO 08008KT 10SM CLR 29/M08 A3020 RMK AO2 SLP220 T02921080 57026
Loading
Personal Weather Stations






























Interactive Weather Map New forecast layout! Learn more

10-Day Weather Forecast

Advertisements
Track Severe Weather on mobile